Terminal Aerodrome Forecast
Issued by NWS Jacksonville, FL

Home | Current Version | Previous Version | Text Only | Print | Product List | Glossary On
Versions: 1 2 3 4 5 6 7 8 9 10 11 12 13 14 15 16 17 18 19 20
000
FTUS42 KJAX 291700
TAFJAX
TAF
KJAX 291721Z 2918/3018 27007KT P6SM FEW040 FEW070 SCT200
     FM292300 VRB03KT P6SM FEW070 FEW250
     FM301400 32006KT P6SM FEW060=

USA.gov is the U.S. government's official web portal to all federal, state and local government web resources and services.